createdAt,value
2018-08-11T00:01:11.697Z,75.12
2018-08-11T00:03:40.958Z,74.65
2018-08-11T00:06:11.282Z,75.13
2018-08-11T00:08:45.770Z,75.82
2018-08-11T00:12:03.221Z,75.97
2018-08-11T00:14:32.769Z,76.98
2018-08-11T00:17:02.523Z,77.53
2018-08-11T00:22:19.240Z,78.30
2018-08-11T00:25:14.177Z,78.53
2018-08-11T00:27:55.064Z,79.26
2018-08-11T00:30:30.024Z,79.25
2018-08-11T00:33:12.701Z,79.46
2018-08-11T00:35:55.312Z,80.88
2018-08-11T00:38:26.254Z,79.92
2018-08-11T00:41:03.122Z,79.16
2018-08-11T00:43:44.419Z,80.08
2018-08-11T00:46:26.251Z,81.30
2018-08-11T00:49:05.796Z,82.15
2018-08-11T00:51:41.278Z,81.12
2018-08-11T00:55:19.694Z,82.13
2018-08-11T00:57:58.924Z,82.30
2018-08-11T01:00:46.141Z,83.69
2018-08-11T01:03:26.942Z,82.42
2018-08-11T01:06:04.805Z,80.87
2018-08-11T01:08:43.521Z,81.70
2018-08-11T01:11:14.776Z,82.83
2018-08-11T01:14:01.743Z,84.33
2018-08-11T01:16:44.466Z,84.47
2018-08-11T01:19:40.260Z,85.15
2018-08-11T01:22:21.195Z,85.17
2018-08-11T01:24:58.749Z,85.87
2018-08-11T01:27:38.557Z,85.58
2018-08-11T01:30:22.408Z,85.49
2018-08-11T01:32:57.949Z,85.87
2018-08-11T01:35:37.835Z,86.79
2018-08-11T01:38:17.875Z,84.07
2018-08-11T01:40:54.176Z,83.07
2018-08-11T01:43:35.806Z,83.67
2018-08-11T01:46:05.922Z,85.08
2018-08-11T01:48:35.107Z,86.17
2018-08-11T01:51:05.192Z,86.13
2018-08-11T01:53:36.790Z,87.98
2018-08-11T02:01:31.858Z,85.62
2018-08-11T02:04:05.954Z,85.50
2018-08-11T02:06:39.639Z,85.15
2018-08-11T02:09:17.759Z,86.16
2018-08-11T02:11:49.835Z,85.34
2018-08-11T02:14:34.606Z,85.28
2018-08-11T02:17:10.926Z,86.91
2018-08-11T02:23:06.599Z,89.09
2018-08-11T02:25:35.798Z,89.54
2018-08-11T02:28:27.319Z,89.12
2018-08-11T02:30:57.190Z,88.94
2018-08-11T02:33:32.799Z,90.05
2018-08-11T02:36:10.094Z,88.07
2018-08-11T02:38:39.486Z,87.89
2018-08-11T02:41:08.802Z,90.07
2018-08-11T02:43:37.898Z,91.18
2018-08-11T02:46:07.116Z,91.13
2018-08-11T02:48:37.016Z,91.13
2018-08-11T02:51:06.127Z,92.32
2018-08-11T02:53:35.559Z,92.89
2018-08-11T02:56:05.027Z,91.86
2018-08-11T02:58:41.247Z,93.16
2018-08-11T03:01:10.456Z,93.67
2018-08-11T03:03:39.622Z,95.38
2018-08-11T03:06:13.411Z,95.65
2018-08-11T03:08:42.768Z,96.83
2018-08-11T03:11:13.028Z,97.84
2018-08-11T03:13:42.157Z,97.58
2018-08-11T03:16:11.256Z,97.37
2018-08-11T03:18:48.141Z,97.97
2018-08-11T03:21:18.043Z,97.57
2018-08-11T03:23:47.582Z,97.65
2018-08-11T03:29:45.125Z,96.86
2018-08-11T03:32:17.290Z,97.39
2018-08-11T03:34:46.821Z,95.83
2018-08-11T03:37:28.944Z,96.40
2018-08-11T03:39:58.142Z,97.92
2018-08-11T03:42:27.617Z,97.35
2018-08-11T03:44:56.677Z,98.42
2018-08-11T03:47:42.613Z,98.36
2018-08-11T03:50:11.706Z,97.63
2018-08-11T03:52:40.699Z,97.00
2018-08-11T03:55:09.671Z,95.34
2018-08-11T03:57:38.786Z,95.30
2018-08-11T04:00:09.775Z,94.52
2018-08-11T04:02:38.888Z,95.20
2018-08-11T04:05:07.912Z,96.40
2018-08-11T04:07:37.053Z,97.39
2018-08-11T04:10:06.807Z,97.44
2018-08-11T04:12:35.773Z,97.15
2018-08-11T04:15:05.626Z,96.05
2018-08-11T04:17:38.392Z,96.39
2018-08-11T04:20:08.889Z,95.95
2018-08-11T04:22:37.984Z,96.59
2018-08-11T04:25:08.201Z,98.18
2018-08-11T04:27:37.654Z,96.85
2018-08-11T04:30:08.699Z,93.51
2018-08-11T04:32:37.880Z,93.78
2018-08-11T04:35:06.930Z,92.40
2018-08-11T04:37:36.009Z,91.17
2018-08-11T04:40:05.449Z,90.04
2018-08-11T04:42:34.626Z,88.41
2018-08-11T04:45:04.663Z,89.05
2018-08-11T04:47:33.965Z,87.55
2018-08-11T04:50:04.536Z,85.92
2018-08-11T04:52:34.087Z,84.72
2018-08-11T04:55:04.095Z,85.33
2018-08-11T04:57:33.230Z,84.66
2018-08-11T05:00:02.858Z,80.21
2018-08-11T05:02:32.023Z,81.12
2018-08-11T05:05:03.341Z,77.92
2018-08-11T05:07:33.502Z,77.66
2018-08-11T05:10:03.809Z,76.06
2018-08-11T05:12:33.023Z,73.85
2018-08-11T05:15:02.611Z,70.64
2018-08-11T05:17:31.775Z,71.07
2018-08-11T05:20:01.243Z,68.92
2018-08-11T05:22:30.908Z,68.17
2018-08-11T05:25:01.220Z,66.62
2018-08-11T05:27:30.477Z,66.60
2018-08-11T05:30:00.400Z,66.58
2018-08-11T05:32:29.688Z,64.84
2018-08-11T05:34:59.144Z,64.65
2018-08-11T05:37:28.374Z,65.31
2018-08-11T05:39:58.653Z,66.54
2018-08-11T05:42:28.476Z,67.32
2018-08-11T05:44:57.864Z,67.11
2018-08-11T05:47:30.548Z,68.11
2018-08-11T05:49:59.770Z,66.83
2018-08-11T05:52:29.039Z,66.22
2018-08-11T05:54:58.057Z,65.88
2018-08-11T05:57:27.060Z,64.86
2018-08-11T05:59:56.106Z,64.16
2018-08-11T06:02:25.455Z,62.18
2018-08-11T06:04:54.560Z,62.43
2018-08-11T06:07:23.977Z,61.78
2018-08-11T06:12:45.770Z,60.14
2018-08-11T06:15:19.365Z,59.45
2018-08-11T06:17:48.386Z,59.22
2018-08-11T06:20:21.270Z,58.63
2018-08-11T06:22:50.286Z,60.65
2018-08-11T06:25:22.224Z,59.99
2018-08-11T06:27:51.208Z,59.05
2018-08-11T06:30:23.053Z,57.95
2018-08-11T06:32:52.594Z,56.98
2018-08-11T06:35:23.477Z,57.18
2018-08-11T06:37:52.744Z,56.82
2018-08-11T06:40:24.320Z,55.68
2018-08-11T06:42:53.682Z,55.77
2018-08-11T06:45:55.562Z,57.52
2018-08-11T06:48:25.107Z,59.53
2018-08-11T06:50:54.818Z,58.66
2018-08-11T06:53:34.282Z,57.58
2018-08-11T06:56:10.177Z,53.89
2018-08-11T06:58:39.339Z,55.22
2018-08-11T07:01:08.341Z,51.26
2018-08-11T07:03:37.548Z,51.58
2018-08-11T07:06:06.539Z,50.58
2018-08-11T07:08:35.574Z,50.70
2018-08-11T07:11:06.371Z,48.78
2018-08-11T07:13:52.941Z,48.05
2018-08-11T07:16:22.903Z,51.63
2018-08-11T07:18:52.159Z,49.23
2018-08-11T07:21:21.140Z,48.69
2018-08-11T07:23:50.294Z,46.27
2018-08-11T07:26:19.644Z,47.61
2018-08-11T07:28:48.817Z,46.00
2018-08-11T07:31:17.910Z,44.28
2018-08-11T07:33:47.182Z,44.00
2018-08-11T07:36:16.206Z,43.02
2018-08-11T07:38:45.365Z,42.38
2018-08-11T07:41:14.550Z,40.95
2018-08-11T07:43:43.943Z,43.01
2018-08-11T07:46:13.008Z,42.17
2018-08-11T07:48:42.042Z,43.65
2018-08-11T07:51:11.305Z,42.19
2018-08-11T07:53:40.610Z,43.96
2018-08-11T07:56:09.651Z,43.52
2018-08-11T07:58:38.737Z,44.32
2018-08-11T08:01:07.784Z,41.95
2018-08-11T08:03:36.831Z,41.01
2018-08-11T08:06:05.903Z,40.19
2018-08-11T08:08:36.994Z,39.49
2018-08-11T08:11:06.430Z,40.36
2018-08-11T08:13:35.642Z,42.87
2018-08-11T08:16:05.206Z,41.24
2018-08-11T08:18:34.376Z,40.11
2018-08-11T08:21:04.017Z,40.96
2018-08-11T08:23:33.442Z,38.74
2018-08-11T08:26:03.193Z,41.36
2018-08-11T08:28:32.388Z,38.64
2018-08-11T08:31:02.371Z,37.48
2018-08-11T08:33:36.836Z,33.90
2018-08-11T08:36:06.117Z,36.56
2018-08-11T08:38:35.096Z,36.21
2018-08-11T08:41:04.633Z,35.66
2018-08-11T08:43:33.608Z,33.97
2018-08-11T08:46:03.162Z,37.01
2018-08-11T08:48:32.141Z,36.95
2018-08-11T08:51:02.888Z,36.53
2018-08-11T08:53:31.860Z,34.86
2018-08-11T08:56:01.215Z,36.33
2018-08-11T08:58:30.340Z,37.13
2018-08-11T09:00:59.465Z,38.31
2018-08-11T09:03:28.477Z,37.30
2018-08-11T09:05:57.614Z,37.46
2018-08-11T09:08:26.596Z,38.25
2018-08-11T09:10:55.615Z,37.56
2018-08-11T09:13:24.782Z,38.13
2018-08-11T09:15:53.953Z,37.85
2018-08-11T09:18:23.057Z,37.84
2018-08-11T09:20:52.158Z,36.11
2018-08-11T09:23:21.157Z,36.55
2018-08-11T09:25:50.150Z,35.19
2018-08-11T09:28:19.238Z,34.60
2018-08-11T09:30:48.259Z,35.40
2018-08-11T09:33:17.286Z,33.64
2018-08-11T09:35:46.262Z,32.01
2018-08-11T09:38:15.228Z,31.37
2018-08-11T09:40:44.155Z,35.13
2018-08-11T09:43:13.233Z,36.54
2018-08-11T09:45:42.303Z,36.43
2018-08-11T09:48:11.299Z,35.23
2018-08-11T09:50:40.294Z,35.75
2018-08-11T09:53:09.311Z,35.22
2018-08-11T09:55:38.421Z,34.52
2018-08-11T09:58:07.405Z,34.27
2018-08-11T10:00:41.334Z,36.53
2018-08-11T10:03:10.333Z,36.03
2018-08-11T10:05:39.342Z,34.38
2018-08-11T10:08:08.558Z,34.95
2018-08-11T10:10:37.657Z,34.40
2018-08-11T10:13:06.880Z,32.46
2018-08-11T10:15:35.998Z,31.76
2018-08-11T10:18:05.253Z,31.51
2018-08-11T10:20:34.205Z,32.58
2018-08-11T10:23:03.984Z,33.26
2018-08-11T10:25:33.160Z,32.29
2018-08-11T10:28:02.380Z,31.74
2018-08-11T10:30:31.317Z,29.23
2018-08-11T10:33:00.368Z,30.62
2018-08-11T10:35:29.434Z,32.53
2018-08-11T10:37:59.274Z,33.54
2018-08-11T10:40:28.474Z,35.45
2018-08-11T10:42:57.496Z,33.29
2018-08-11T10:45:26.672Z,33.00
2018-08-11T10:47:55.907Z,31.19
2018-08-11T10:50:24.910Z,31.27
2018-08-11T10:52:53.883Z,32.61
2018-08-11T10:55:22.903Z,33.15
2018-08-11T10:57:51.888Z,31.63
2018-08-11T11:00:26.634Z,27.51
2018-08-11T11:02:55.668Z,27.34
2018-08-11T11:05:24.739Z,27.35
2018-08-11T11:07:54.069Z,28.83
2018-08-11T11:10:24.488Z,29.87
2018-08-11T11:12:53.528Z,31.92
2018-08-11T11:15:22.590Z,33.65
2018-08-11T11:17:51.694Z,34.56
2018-08-11T11:20:23.051Z,33.58
2018-08-11T11:22:51.986Z,30.48
2018-08-11T11:25:21.881Z,29.38
2018-08-11T11:27:50.881Z,27.92
2018-08-11T11:30:22.416Z,31.08
2018-08-11T11:32:51.591Z,30.28
2018-08-11T11:35:22.452Z,24.22
2018-08-11T11:37:51.475Z,21.49
2018-08-11T11:40:23.817Z,22.97
2018-08-11T11:42:53.010Z,22.56
2018-08-11T11:45:22.830Z,21.94
2018-08-11T11:47:52.205Z,24.52
2018-08-11T11:51:07.712Z,21.70
2018-08-11T11:54:16.154Z,20.62
2018-08-11T11:56:45.203Z,22.86
2018-08-11T11:59:14.154Z,19.94
2018-08-11T12:01:43.191Z,22.27
2018-08-11T12:04:12.264Z,21.99
2018-08-11T12:06:41.299Z,20.96
2018-08-11T12:09:11.428Z,20.89
2018-08-11T12:11:40.723Z,20.79
2018-08-11T12:14:09.839Z,20.17
2018-08-11T12:16:38.975Z,18.51
2018-08-11T12:19:08.265Z,20.28
2018-08-11T12:21:47.109Z,20.77
2018-08-11T12:24:16.137Z,20.20
2018-08-11T12:26:45.233Z,22.12
2018-08-11T12:29:14.234Z,20.75
2018-08-11T12:31:43.272Z,20.03
2018-08-11T12:34:12.291Z,19.33
2018-08-11T12:36:41.276Z,20.17
2018-08-11T12:39:11.373Z,21.43
2018-08-11T12:41:41.121Z,21.10
2018-08-11T12:44:10.648Z,19.39
2018-08-11T12:46:39.756Z,18.52
2018-08-11T12:49:09.059Z,19.31
2018-08-11T12:51:38.431Z,18.46
2018-08-11T12:54:07.712Z,20.03
2018-08-11T12:56:36.716Z,20.35
2018-08-11T12:59:05.789Z,21.89
2018-08-11T13:01:34.853Z,21.96
2018-08-11T13:04:04.447Z,20.71
2018-08-11T13:06:33.498Z,22.13
2018-08-11T13:09:03.370Z,21.17
2018-08-11T13:11:32.470Z,23.21
2018-08-11T13:14:01.995Z,22.09
2018-08-11T13:16:41.542Z,22.51
2018-08-11T13:19:10.596Z,23.71
2018-08-11T13:21:39.764Z,24.58
2018-08-11T13:24:08.971Z,24.90
2018-08-11T13:26:37.971Z,23.85
2018-08-11T13:29:07.144Z,23.14
2018-08-11T13:31:36.125Z,23.56
2018-08-11T13:34:05.383Z,23.71
2018-08-11T13:36:34.350Z,23.84
2018-08-11T13:39:10.664Z,25.02
2018-08-11T13:41:45.376Z,26.79
2018-08-11T13:44:15.040Z,24.87
2018-08-11T13:46:43.979Z,26.83
2018-08-11T13:49:12.907Z,24.51
2018-08-11T13:51:42.012Z,26.54
2018-08-11T13:54:10.967Z,26.34
2018-08-11T13:56:40.215Z,27.10
2018-08-11T13:59:09.870Z,25.91
2018-08-11T14:01:39.420Z,26.74
2018-08-11T14:04:08.477Z,26.90
2018-08-11T14:06:37.555Z,28.46
2018-08-11T14:09:09.520Z,28.75
2018-08-11T14:11:38.647Z,29.15
2018-08-11T14:14:08.300Z,27.44
2018-08-11T14:16:39.198Z,28.91
2018-08-11T14:19:09.277Z,29.52
2018-08-11T14:21:38.401Z,29.01
2018-08-11T14:24:07.652Z,29.76
2018-08-11T14:26:36.943Z,31.36
2018-08-11T14:29:06.157Z,32.33
2018-08-11T14:31:36.227Z,32.62
2018-08-11T14:34:05.605Z,31.86
2018-08-11T14:36:34.602Z,32.76
2018-08-11T14:39:04.926Z,31.76
2018-08-11T14:41:34.436Z,32.19
2018-08-11T14:44:04.003Z,30.85
2018-08-11T14:46:33.097Z,31.19
2018-08-11T14:49:02.681Z,33.77
2018-08-11T14:51:32.699Z,32.85
2018-08-11T14:54:02.021Z,32.62
2018-08-11T14:56:31.276Z,32.85
2018-08-11T14:59:00.679Z,32.79
2018-08-11T15:01:29.790Z,33.21
2018-08-11T15:04:21.722Z,33.91
2018-08-11T15:06:51.893Z,33.99
2018-08-11T15:09:21.123Z,33.71
2018-08-11T15:11:50.442Z,34.73
2018-08-11T15:14:20.390Z,35.14
2018-08-11T15:17:04.606Z,35.67
2018-08-11T15:19:33.970Z,35.79
2018-08-11T15:22:06.658Z,36.21
2018-08-11T15:24:36.138Z,35.55
2018-08-11T15:27:05.306Z,36.01
2018-08-11T15:29:34.495Z,34.62
2018-08-11T15:32:04.535Z,33.81
2018-08-11T15:34:33.610Z,34.23
2018-08-11T15:37:03.289Z,35.72
2018-08-11T15:39:34.143Z,34.42
2018-08-11T15:42:04.302Z,33.96
2018-08-11T15:44:33.314Z,34.72
2018-08-11T15:47:02.702Z,34.39
2018-08-11T15:49:33.583Z,35.18
2018-08-11T15:52:05.726Z,34.35
2018-08-11T15:54:34.835Z,35.43
2018-08-11T15:57:05.760Z,35.11
2018-08-11T15:59:35.071Z,35.24
2018-08-11T16:02:04.780Z,35.22
2018-08-11T16:04:33.750Z,35.81
2018-08-11T16:07:03.866Z,34.87
2018-08-11T16:09:32.937Z,35.89
2018-08-11T16:12:03.256Z,33.43
2018-08-11T16:14:32.371Z,34.97
2018-08-11T16:17:01.482Z,34.12
2018-08-11T16:19:30.624Z,34.58
2018-08-11T16:21:59.667Z,33.63
2018-08-11T16:24:28.773Z,32.92
2018-08-11T16:26:57.874Z,33.35
2018-08-11T16:29:27.361Z,32.86
2018-08-11T16:31:56.600Z,33.33
2018-08-11T16:34:25.598Z,33.35
2018-08-11T16:36:54.821Z,33.54
2018-08-11T16:39:24.030Z,33.56
2018-08-11T16:41:53.184Z,32.07
2018-08-11T16:44:22.118Z,32.52
2018-08-11T16:46:51.498Z,32.94
2018-08-11T16:49:33.178Z,31.99
2018-08-11T16:52:02.606Z,32.02
2018-08-11T16:54:31.614Z,32.80
2018-08-11T16:57:00.643Z,32.57
2018-08-11T16:59:30.124Z,32.71
2018-08-11T17:01:59.007Z,32.40
2018-08-11T17:04:28.083Z,31.48
2018-08-11T17:06:57.092Z,32.37
2018-08-11T17:09:26.223Z,32.14
2018-08-11T17:11:55.522Z,31.53
2018-08-11T17:14:24.545Z,31.95
2018-08-11T17:16:53.557Z,31.41
2018-08-11T17:19:22.520Z,31.67
2018-08-11T17:21:51.505Z,32.82
2018-08-11T17:24:20.595Z,32.25
2018-08-11T17:26:49.692Z,33.16
2018-08-11T17:46:33.599Z,35.16
2018-08-11T17:49:02.898Z,35.73
2018-08-11T17:51:31.825Z,35.54
2018-08-11T17:54:00.955Z,35.49
2018-08-11T17:56:30.186Z,35.77
2018-08-11T17:58:59.191Z,36.24
2018-08-11T18:01:28.307Z,35.58
2018-08-11T18:06:42.766Z,35.71
2018-08-11T18:09:12.473Z,36.34
2018-08-11T18:11:42.042Z,35.60
2018-08-11T18:14:11.196Z,36.08
2018-08-11T18:16:40.307Z,35.44
2018-08-11T18:19:09.651Z,36.11
2018-08-11T18:21:41.593Z,36.94
2018-08-11T18:24:10.667Z,36.47
2018-08-11T18:26:39.735Z,37.75
2018-08-11T18:29:08.816Z,37.96
2018-08-11T18:31:37.929Z,37.98
2018-08-11T18:34:07.082Z,37.22
2018-08-11T18:36:36.085Z,37.30
2018-08-11T18:39:09.206Z,38.25
2018-08-11T18:41:38.488Z,38.72
2018-08-11T18:44:07.748Z,37.85
2018-08-11T18:46:37.173Z,38.01
2018-08-11T18:49:22.945Z,38.07
2018-08-11T18:51:59.641Z,38.85
2018-08-11T18:54:28.716Z,39.29
2018-08-11T18:56:57.834Z,38.66
2018-08-11T18:59:31.889Z,38.68
2018-08-11T19:02:02.285Z,39.70
2018-08-11T19:04:32.319Z,39.30
2018-08-11T19:07:12.619Z,38.88
2018-08-11T19:12:27.058Z,38.47
2018-08-11T19:15:06.084Z,39.43
2018-08-11T19:18:06.392Z,39.29
2018-08-11T19:20:58.435Z,39.22
2018-08-11T19:23:46.093Z,40.18
2018-08-11T19:26:15.511Z,39.38
2018-08-11T19:28:49.347Z,39.37
2018-08-11T19:51:32.519Z,41.85
2018-08-11T19:54:05.021Z,41.76
2018-08-11T19:56:41.972Z,41.13
2018-08-11T19:59:11.167Z,41.56
2018-08-11T20:01:40.489Z,41.92
2018-08-11T20:04:14.096Z,42.13
2018-08-11T20:06:46.264Z,42.88
2018-08-11T20:12:12.850Z,42.88
2018-08-11T20:15:02.618Z,43.18
2018-08-11T20:17:40.645Z,43.91
2018-08-11T20:20:19.598Z,43.99
2018-08-11T20:22:49.252Z,44.08
2018-08-11T20:25:32.293Z,44.41
2018-08-11T20:28:05.217Z,44.56
2018-08-11T20:30:34.307Z,45.09
2018-08-11T20:33:32.402Z,44.69
2018-08-11T20:36:04.582Z,44.91
2018-08-11T20:42:04.652Z,46.10
2018-08-11T20:44:53.661Z,46.79
2018-08-11T20:47:22.984Z,46.68
2018-08-11T20:49:54.551Z,46.85
2018-08-11T20:52:25.142Z,46.97
2018-08-11T20:55:03.643Z,47.10
2018-08-11T20:57:34.159Z,47.64
2018-08-11T21:00:19.467Z,47.81
2018-08-11T21:02:51.542Z,47.18
2018-08-11T21:05:30.304Z,48.52
2018-08-11T21:08:08.261Z,48.19
2018-08-11T21:10:43.373Z,48.29
2018-08-11T21:13:21.677Z,47.27
2018-08-11T21:15:59.636Z,48.28
2018-08-11T21:18:45.515Z,48.45
2018-08-11T21:21:22.314Z,48.39
2018-08-11T21:23:52.428Z,48.59
2018-08-11T21:26:47.169Z,48.90
2018-08-11T21:29:23.234Z,49.00
2018-08-11T21:32:06.909Z,49.31
2018-08-11T21:34:59.360Z,49.36
2018-08-11T21:40:32.024Z,48.52
2018-08-11T21:43:12.023Z,49.86
2018-08-11T21:45:41.671Z,49.47
2018-08-11T21:48:10.929Z,50.19
2018-08-11T21:50:39.981Z,49.71
2018-08-11T21:53:09.483Z,49.76
2018-08-11T21:58:59.615Z,50.47
2018-08-11T22:01:30.069Z,50.33
2018-08-11T22:04:08.716Z,50.60
2018-08-11T22:06:47.611Z,49.77
2018-08-11T22:09:20.719Z,49.70
2018-08-11T22:11:59.336Z,49.51
2018-08-11T22:14:43.985Z,48.44
2018-08-11T22:17:15.059Z,48.87
2018-08-11T22:19:50.550Z,48.53
2018-08-11T22:22:23.750Z,49.84
2018-08-11T22:25:00.509Z,48.78
2018-08-11T22:28:05.576Z,50.40
2018-08-11T22:30:50.010Z,50.32
2018-08-11T22:33:19.628Z,51.56
2018-08-11T22:35:59.150Z,51.82
2018-08-11T22:38:35.337Z,51.42
2018-08-11T22:41:08.339Z,52.08
2018-08-11T22:43:47.402Z,53.20
2018-08-11T22:46:22.493Z,52.96
2018-08-11T22:48:51.637Z,54.13
2018-08-11T22:51:21.263Z,54.98
2018-08-11T22:54:02.985Z,54.73
2018-08-11T22:59:33.364Z,55.45
2018-08-11T23:02:03.584Z,55.28
2018-08-11T23:04:46.978Z,56.20
2018-08-11T23:07:39.913Z,56.06
2018-08-11T23:10:38.644Z,56.96
2018-08-11T23:13:12.549Z,57.62
2018-08-11T23:18:42.555Z,59.46
2018-08-11T23:21:16.457Z,60.10
2018-08-11T23:23:53.471Z,59.77
2018-08-11T23:26:23.379Z,61.20
2018-08-11T23:29:06.271Z,61.37
2018-08-11T23:31:44.831Z,61.71
2018-08-11T23:34:19.682Z,62.93
2018-08-11T23:36:49.070Z,62.45
2018-08-11T23:39:18.215Z,62.50
2018-08-11T23:41:47.477Z,62.92
2018-08-11T23:44:29.202Z,62.89
2018-08-11T23:47:16.850Z,62.51
2018-08-11T23:49:51.041Z,63.17
2018-08-11T23:52:20.041Z,63.52
2018-08-11T23:54:49.125Z,63.90
2018-08-11T23:57:34.535Z,63.57
